Time;durP1;ratioP1;P1;durP2;ratioP2;P2;SDS_P1;SDS_P2;PMS_P1;PMS_P2;Temp;Humidity;BMP_temperature;BMP_pressure;BME280_temperature;BME280_humidity;BME280_pressure;Samples;Min_cycle;Max_cycle;Signal;HPM_P1;HPM_P2
2023/06/25 00:01:13;;;;;;;16.70;10.63;;;18.30;99.90;;;;;;5242875;28;20566;-46
2023/06/25 00:03:45;;;;;;;15.07;10.33;;;18.30;99.90;;;;;;5246189;28;20194;-45
2023/06/25 00:06:15;;;;;;;14.20;10.00;;;18.30;99.90;;;;;;5246809;28;20183;-44
2023/06/25 00:08:46;;;;;;;9.77;8.50;;;18.30;99.90;;;;;;5230782;28;20483;-44
2023/06/25 00:11:17;;;;;;;13.37;9.20;;;18.30;99.90;;;;;;5233283;28;20264;-44
2023/06/25 00:13:47;;;;;;;9.23;7.70;;;18.30;99.90;;;;;;5235051;28;20648;-44
2023/06/25 00:16:18;;;;;;;14.33;8.90;;;18.30;99.90;;;;;;5246277;28;20193;-44
2023/06/25 00:18:49;;;;;;;10.63;8.93;;;18.30;99.90;;;;;;5244975;28;20209;-45
2023/06/25 00:21:19;;;;;;;10.40;8.90;;;18.30;99.90;;;;;;5248483;28;20189;-45
2023/06/25 00:23:50;;;;;;;15.13;8.83;;;18.40;99.90;;;;;;5244288;28;20566;-44
2023/06/25 00:26:20;;;;;;;10.30;9.20;;;18.50;99.90;;;;;;5237798;28;20186;-45
2023/06/25 00:28:51;;;;;;;13.50;8.87;;;18.60;99.90;;;;;;5243370;28;20245;-44
2023/06/25 00:31:22;;;;;;;22.93;10.13;;;18.70;99.90;;;;;;5249413;28;20217;-45
2023/06/25 00:33:52;;;;;;;12.60;8.70;;;18.70;99.90;;;;;;5239348;28;20186;-44
2023/06/25 00:36:23;;;;;;;14.53;8.97;;;18.80;99.90;;;;;;5242695;28;20276;-44
2023/06/25 00:38:53;;;;;;;11.27;8.40;;;18.80;99.90;;;;;;5243393;28;20570;-44
2023/06/25 00:41:26;;;;;;;12.90;8.87;;;18.90;99.90;;;;;;5231603;28;20186;-44
2023/06/25 00:43:57;;;;;;;9.00;8.03;;;18.90;99.90;;;;;;5236821;28;20738;-44
2023/06/25 00:46:28;;;;;;;11.87;8.30;;;19.00;99.90;;;;;;5249579;28;20432;-44
2023/06/25 00:49:01;;;;;;;11.17;8.03;;;19.00;99.90;;;;;;5247709;28;21049;-44
2023/06/25 00:51:35;;;;;;;8.90;7.30;;;19.10;99.90;;;;;;5213282;28;20214;-44
2023/06/25 00:54:06;;;;;;;11.70;7.77;;;19.10;99.90;;;;;;5248470;28;20413;-44
2023/06/25 00:56:37;;;;;;;13.50;8.73;;;19.20;99.90;;;;;;5243582;28;20428;-44
2023/06/25 00:59:08;;;;;;;10.57;8.60;;;19.20;99.90;;;;;;5244814;28;20186;-45
2023/06/25 01:01:48;;;;;;;9.27;7.60;;;19.20;99.90;;;;;;5239656;28;20976;-45
2023/06/25 01:04:25;;;;;;;8.70;7.70;;;19.20;99.90;;;;;;5229324;28;20564;-45
2023/06/25 01:07:00;;;;;;;7.70;6.53;;;19.20;99.90;;;;;;5245725;28;20483;-43
2023/06/25 01:09:31;;;;;;;13.20;7.87;;;19.20;99.90;;;;;;5230968;28;20419;-45
2023/06/25 01:12:03;;;;;;;8.03;6.93;;;19.20;99.90;;;;;;5247165;28;20510;-45
2023/06/25 01:14:34;;;;;;;11.33;7.00;;;19.20;99.90;;;;;;5240646;28;20432;-45
2023/06/25 01:17:05;;;;;;;10.80;7.60;;;19.20;99.90;;;;;;5240914;28;20455;-45
2023/06/25 01:19:36;;;;;;;13.23;7.93;;;19.20;99.90;;;;;;5243851;28;20229;-44
2023/06/25 01:22:07;;;;;;;8.37;7.50;;;19.20;99.90;;;;;;5236935;28;20223;-44
2023/06/25 01:24:39;;;;;;;16.10;8.70;;;19.20;99.90;;;;;;5237846;28;20534;-45
2023/06/25 01:27:10;;;;;;;13.90;7.57;;;19.20;99.90;;;;;;5236066;28;20547;-45
2023/06/25 01:29:41;;;;;;;10.23;7.53;;;19.20;99.90;;;;;;5248968;28;20436;-45
2023/06/25 01:32:11;;;;;;;13.27;8.43;;;19.20;99.90;;;;;;5224553;28;20471;-43
2023/06/25 01:34:43;;;;;;;12.63;8.50;;;19.30;99.90;;;;;;5240758;28;20274;-44
2023/06/25 01:37:17;;;;;;;10.00;8.33;;;19.30;99.90;;;;;;5243095;28;20198;-44
2023/06/25 01:39:53;;;;;;;9.80;8.70;;;19.30;99.90;;;;;;5231445;28;20800;-44
2023/06/25 01:42:24;;;;;;;8.33;7.37;;;19.30;99.90;;;;;;5248799;28;20412;-44
2023/06/25 01:44:54;;;;;;;10.83;8.40;;;19.30;99.90;;;;;;5247199;28;20415;-45
2023/06/25 01:47:25;;;;;;;8.13;7.37;;;19.40;99.90;;;;;;5244324;28;20206;-45
2023/06/25 01:49:55;;;;;;;13.20;7.00;;;19.40;99.90;;;;;;5240299;28;20242;-44
2023/06/25 01:52:26;;;;;;;13.87;8.77;;;19.40;99.90;;;;;;5231109;28;20191;-50
2023/06/25 01:54:57;;;;;;;13.90;7.93;;;19.40;99.90;;;;;;5240324;28;20175;-45
2023/06/25 01:57:27;;;;;;;16.33;9.23;;;19.40;99.90;;;;;;5238830;28;20208;-45
2023/06/25 01:59:58;;;;;;;19.27;9.80;;;19.40;99.90;;;;;;5237142;28;20201;-46
2023/06/25 02:02:28;;;;;;;19.67;10.03;;;19.40;99.90;;;;;;5248401;28;20190;-44
2023/06/25 02:04:59;;;;;;;14.30;8.93;;;19.40;99.90;;;;;;5244168;28;20183;-44
2023/06/25 02:07:30;;;;;;;15.17;7.73;;;19.40;99.90;;;;;;5247249;28;20209;-45
2023/06/25 02:10:00;;;;;;;11.97;8.77;;;19.40;99.90;;;;;;5227642;28;20257;-45
2023/06/25 02:12:31;;;;;;;11.80;8.40;;;19.40;99.90;;;;;;5229111;28;20206;-45
2023/06/25 02:15:02;;;;;;;10.40;8.00;;;19.40;99.90;;;;;;5229834;28;20213;-46
2023/06/25 02:17:32;;;;;;;7.77;6.97;;;19.40;99.90;;;;;;5243371;28;20206;-45
2023/06/25 02:20:05;;;;;;;8.67;7.30;;;19.40;99.90;;;;;;5236362;28;20183;-45
2023/06/25 02:22:35;;;;;;;11.67;6.70;;;19.40;99.90;;;;;;5237001;28;20179;-45
2023/06/25 02:25:06;;;;;;;8.10;6.20;;;19.40;99.90;;;;;;5244243;28;20794;-52
2023/06/25 02:27:37;;;;;;;11.83;8.60;;;19.40;99.90;;;;;;5241633;28;20808;-45
2023/06/25 02:30:08;;;;;;;11.70;8.67;;;19.40;99.90;;;;;;5237149;28;20436;-46
2023/06/25 02:32:39;;;;;;;11.20;8.00;;;19.40;99.90;;;;;;5218185;28;20237;-45
2023/06/25 02:35:10;;;;;;;10.90;7.70;;;19.40;99.90;;;;;;5231875;28;20438;-45
2023/06/25 02:37:40;;;;;;;10.47;7.40;;;19.50;99.90;;;;;;5239887;28;20624;-45
2023/06/25 02:40:11;;;;;;;11.57;8.13;;;19.50;99.90;;;;;;5241144;28;20653;-45
2023/06/25 02:42:42;;;;;;;8.73;7.50;;;19.50;99.90;;;;;;5228882;28;20201;-45
2023/06/25 02:45:13;;;;;;;9.43;7.93;;;19.50;99.90;;;;;;5229580;28;20430;-45
2023/06/25 02:47:43;;;;;;;10.90;8.47;;;19.50;99.90;;;;;;5246154;28;20226;-44
2023/06/25 02:50:14;;;;;;;11.33;7.27;;;19.50;99.90;;;;;;5243443;28;20187;-45
2023/06/25 02:52:45;;;;;;;10.73;8.87;;;19.50;99.90;;;;;;5228946;28;20307;-45
2023/06/25 02:55:15;;;;;;;11.90;8.90;;;19.50;99.90;;;;;;5246638;28;20428;-45
2023/06/25 02:57:46;;;;;;;9.30;8.20;;;19.50;99.90;;;;;;5247171;28;20299;-45
2023/06/25 03:00:17;;;;;;;12.57;8.50;;;19.50;99.90;;;;;;5246997;28;20174;-44
2023/06/25 03:02:48;;;;;;;10.90;8.23;;;19.50;99.90;;;;;;5236049;28;20183;-46
2023/06/25 03:05:18;;;;;;;14.73;8.87;;;19.50;99.90;;;;;;5240031;28;20436;-44
2023/06/25 03:07:54;;;;;;;9.87;8.00;;;19.50;99.90;;;;;;5228061;28;20225;-45
2023/06/25 03:10:31;;;;;;;12.27;8.67;;;19.50;99.90;;;;;;5230018;28;20185;-44
2023/06/25 03:13:02;;;;;;;10.00;8.53;;;19.50;99.90;;;;;;5243172;28;20460;-45
2023/06/25 03:15:33;;;;;;;13.37;9.07;;;19.50;99.90;;;;;;5241072;28;20495;-45
2023/06/25 03:18:04;;;;;;;13.10;9.10;;;19.50;99.90;;;;;;5239437;28;20685;-44
2023/06/25 03:20:35;;;;;;;14.40;9.60;;;19.50;99.90;;;;;;5235935;28;20232;-45
2023/06/25 03:23:06;;;;;;;11.20;8.27;;;19.50;99.90;;;;;;5236349;28;20465;-45
2023/06/25 03:25:36;;;;;;;12.53;8.00;;;19.40;99.90;;;;;;5245891;28;20197;-45
2023/06/25 03:28:07;;;;;;;12.40;8.17;;;19.50;99.90;;;;;;5241430;28;20285;-45
2023/06/25 03:30:38;;;;;;;13.70;9.20;;;19.50;99.90;;;;;;5247761;28;20178;-46
2023/06/25 03:33:08;;;;;;;8.50;7.60;;;19.50;99.90;;;;;;5231099;28;20210;-45
2023/06/25 03:35:39;;;;;;;9.07;7.97;;;19.50;99.90;;;;;;5230339;28;20183;-45
2023/06/25 03:38:10;;;;;;;12.60;9.23;;;19.50;99.90;;;;;;5237604;28;20253;-45
2023/06/25 03:40:41;;;;;;;13.50;9.27;;;19.50;99.90;;;;;;5236395;28;20193;-45
2023/06/25 03:43:12;;;;;;;13.10;9.17;;;19.50;99.90;;;;;;5239647;28;20425;-44
2023/06/25 03:45:42;;;;;;;13.40;9.10;;;19.50;99.90;;;;;;5247377;28;20181;-44
2023/06/25 03:48:13;;;;;;;12.57;9.27;;;19.60;99.90;;;;;;5240561;28;20243;-45
2023/06/25 03:50:43;;;;;;;10.90;8.87;;;19.60;99.90;;;;;;5232960;28;20266;-46
2023/06/25 03:53:16;;;;;;;10.60;8.97;;;19.60;99.90;;;;;;5245606;28;20562;-45
2023/06/25 03:55:47;;;;;;;12.03;8.63;;;19.60;99.90;;;;;;5242835;28;20742;-44
2023/06/25 03:58:18;;;;;;;12.80;9.43;;;19.70;99.90;;;;;;5231206;28;20477;-45
2023/06/25 04:00:49;;;;;;;12.17;9.00;;;19.70;99.90;;;;;;5241535;28;20170;-44
2023/06/25 04:03:19;;;;;;;10.17;8.57;;;19.70;99.90;;;;;;5249809;28;20231;-45
2023/06/25 04:05:51;;;;;;;10.73;9.33;;;19.70;99.90;;;;;;5237822;28;20183;-45
2023/06/25 04:08:22;;;;;;;12.50;9.20;;;19.70;99.90;;;;;;5209620;28;20243;-45
2023/06/25 04:10:53;;;;;;;14.63;9.90;;;19.70;99.90;;;;;;5234931;28;20421;-45
2023/06/25 04:13:24;;;;;;;12.03;8.70;;;19.70;99.90;;;;;;5243613;28;20444;-45
2023/06/25 04:15:54;;;;;;;12.53;8.43;;;19.70;99.90;;;;;;5240561;28;20220;-45
2023/06/25 04:18:25;;;;;;;12.03;8.93;;;19.80;99.90;;;;;;5230741;28;20278;-45
2023/06/25 04:20:56;;;;;;;12.20;9.00;;;19.80;99.90;;;;;;5231879;28;20183;-44
2023/06/25 04:23:26;;;;;;;10.10;8.63;;;19.80;99.90;;;;;;5245194;28;20179;-44
2023/06/25 04:25:57;;;;;;;11.10;8.53;;;19.90;99.90;;;;;;5246171;28;20182;-44
2023/06/25 04:28:28;;;;;;;18.90;9.13;;;19.90;99.90;;;;;;5244876;28;20199;-44
2023/06/25 04:30:58;;;;;;;12.53;8.87;;;19.90;99.90;;;;;;5236330;28;20425;-44
2023/06/25 04:33:29;;;;;;;7.90;7.10;;;20.00;99.90;;;;;;5227424;28;20176;-44
2023/06/25 04:36:00;;;;;;;14.60;8.87;;;20.10;99.90;;;;;;5228670;28;20178;-44
2023/06/25 04:38:30;;;;;;;10.33;8.00;;;20.10;99.90;;;;;;5243010;28;20682;-45
2023/06/25 04:41:01;;;;;;;10.53;8.13;;;20.10;99.90;;;;;;5260134;22;20664;-45
2023/06/25 04:43:32;;;;;;;10.40;7.90;;;20.20;99.90;;;;;;5231446;28;20183;-45
2023/06/25 04:46:02;;;;;;;8.40;7.10;;;20.30;99.90;;;;;;5230827;28;20581;-45
2023/06/25 04:48:33;;;;;;;11.87;7.60;;;20.40;99.90;;;;;;5230827;28;20205;-46
2023/06/25 04:51:04;;;;;;;11.43;7.60;;;20.50;99.90;;;;;;5213337;28;20227;-46
2023/06/25 04:53:34;;;;;;;13.63;8.00;;;20.50;99.90;;;;;;5223932;28;20180;-46
2023/06/25 04:56:05;;;;;;;9.73;7.20;;;20.60;99.90;;;;;;5228876;28;20179;-46
2023/06/25 04:58:37;;;;;;;10.33;8.00;;;20.60;99.90;;;;;;5227954;28;20176;-46
2023/06/25 05:01:07;;;;;;;8.60;6.43;;;20.70;99.90;;;;;;5221915;28;20190;-46
2023/06/25 05:03:38;;;;;;;12.63;6.40;;;20.80;99.90;;;;;;5212544;28;20560;-46
2023/06/25 05:06:09;;;;;;;11.33;7.80;;;20.90;99.90;;;;;;5233354;28;20204;-46
2023/06/25 05:08:40;;;;;;;11.73;7.70;;;20.90;99.90;;;;;;5215364;28;20293;-46
2023/06/25 05:11:10;;;;;;;19.80;7.80;;;21.10;99.90;;;;;;5233095;28;20643;-46
2023/06/25 05:13:41;;;;;;;12.97;7.40;;;21.10;99.90;;;;;;5212994;28;20184;-46
2023/06/25 05:16:11;;;;;;;7.87;6.03;;;21.10;99.90;;;;;;5231418;28;20179;-45
2023/06/25 05:18:42;;;;;;;8.83;7.23;;;21.10;99.90;;;;;;5231509;28;20183;-46
2023/06/25 05:21:13;;;;;;;7.20;6.50;;;21.10;99.90;;;;;;5230946;28;20298;-48
2023/06/25 05:23:55;;;;;;;7.00;6.30;;;21.20;99.90;;;;;;5196073;28;20670;-46
2023/06/25 05:26:27;;;;;;;22.03;7.30;;;21.20;99.90;;;;;;5218109;28;20180;-46
2023/06/25 05:28:59;;;;;;;8.90;7.40;;;21.30;99.90;;;;;;5219908;28;20429;-47
2023/06/25 05:31:31;;;;;;;7.60;6.10;;;21.30;99.90;;;;;;5222563;28;20905;-45
2023/06/25 05:34:02;;;;;;;7.10;6.50;;;21.30;99.90;;;;;;5227980;28;20475;-48
2023/06/25 05:36:32;;;;;;;10.00;7.00;;;21.40;99.90;;;;;;5213449;28;20921;-46
2023/06/25 05:39:03;;;;;;;6.90;6.30;;;21.40;99.90;;;;;;5213111;28;20285;-46
2023/06/25 05:41:38;;;;;;;11.33;6.63;;;21.50;99.90;;;;;;5231085;28;20579;-47
2023/06/25 05:44:09;;;;;;;6.70;5.67;;;21.60;99.90;;;;;;5226026;28;20183;-46
2023/06/25 05:46:40;;;;;;;8.50;6.07;;;21.70;99.90;;;;;;5225817;28;20480;-47
2023/06/25 05:49:11;;;;;;;7.00;6.30;;;21.80;99.90;;;;;;5212945;28;20949;-48
2023/06/25 05:51:42;;;;;;;6.93;5.90;;;21.90;99.90;;;;;;5213944;28;20198;-45
2023/06/25 05:54:12;;;;;;;5.63;5.03;;;22.00;99.90;;;;;;5225665;28;20432;-46
2023/06/25 05:56:43;;;;;;;7.50;5.57;;;22.20;99.90;;;;;;5232282;28;20179;-46
2023/06/25 05:59:14;;;;;;;7.67;6.30;;;22.50;99.90;;;;;;5221451;28;20204;-47
2023/06/25 06:01:44;;;;;;;6.17;5.50;;;22.70;99.90;;;;;;5210464;28;20187;-46
2023/06/25 06:04:15;;;;;;;5.90;5.40;;;22.90;99.90;;;;;;5223586;28;20252;-46
2023/06/25 06:06:45;;;;;;;10.77;6.03;;;23.30;99.90;;;;;;5235845;28;20190;-46
2023/06/25 06:09:16;;;;;;;7.40;5.90;;;23.50;99.90;;;;;;5234294;28;20605;-46
2023/06/25 06:11:47;;;;;;;11.37;5.37;;;23.80;99.90;;;;;;5211152;28;20207;-47
2023/06/25 06:14:17;;;;;;;10.67;6.40;;;23.90;99.90;;;;;;5216268;28;20175;-46
2023/06/25 06:16:48;;;;;;;7.63;5.90;;;23.90;99.90;;;;;;5210375;28;20211;-46
2023/06/25 06:19:19;;;;;;;10.13;7.10;;;23.80;99.90;;;;;;5227819;28;20234;-46
2023/06/25 06:21:49;;;;;;;8.47;6.20;;;23.60;99.90;;;;;;5228772;28;20285;-46
2023/06/25 06:24:20;;;;;;;6.87;6.07;;;23.40;99.90;;;;;;5232934;28;20288;-47
2023/06/25 06:26:50;;;;;;;6.97;5.50;;;23.20;99.90;;;;;;5232215;28;20187;-46
2023/06/25 06:29:21;;;;;;;6.80;6.10;;;23.30;99.90;;;;;;5214455;28;20723;-47
2023/06/25 06:31:52;;;;;;;7.40;6.03;;;23.40;99.90;;;;;;5232332;28;20218;-46
2023/06/25 06:34:22;;;;;;;7.23;5.50;;;23.50;99.90;;;;;;5232821;28;20183;-46
2023/06/25 06:36:53;;;;;;;11.23;6.03;;;23.80;99.40;;;;;;5214398;28;20274;-47
2023/06/25 06:39:23;;;;;;;11.80;4.93;;;24.40;98.60;;;;;;5245023;28;20214;-46
2023/06/25 06:41:54;;;;;;;6.43;5.23;;;25.10;97.40;;;;;;5231163;28;20186;-45
2023/06/25 06:44:25;;;;;;;5.87;4.83;;;25.80;94.90;;;;;;5230468;28;20195;-45
2023/06/25 06:46:56;;;;;;;11.27;5.10;;;26.20;92.80;;;;;;5212573;28;20191;-46
2023/06/25 06:49:26;;;;;;;8.53;4.93;;;26.50;89.60;;;;;;5211362;28;20206;-46
2023/06/25 06:51:57;;;;;;;10.57;6.10;;;27.20;83.80;;;;;;5220024;28;20329;-47
2023/06/25 06:54:28;;;;;;;8.23;5.50;;;28.10;74.90;;;;;;5206287;28;20170;-47
2023/06/25 06:56:58;;;;;;;7.47;6.10;;;28.60;71.90;;;;;;5233643;28;20649;-46
2023/06/25 06:59:29;;;;;;;9.37;5.57;;;29.90;66.20;;;;;;5209746;28;20198;-47
2023/06/25 07:01:59;;;;;;;7.67;5.07;;;30.80;58.90;;;;;;5207038;28;20183;-47
2023/06/25 07:04:30;;;;;;;12.60;6.57;;;31.80;54.30;;;;;;5228129;28;20178;-47
2023/06/25 07:07:01;;;;;;;8.67;6.30;;;31.10;52.60;;;;;;5227663;28;20183;-46
2023/06/25 07:09:31;;;;;;;8.00;5.77;;;30.30;53.70;;;;;;5209634;28;20205;-47
2023/06/25 07:12:02;;;;;;;6.47;4.80;;;29.80;55.00;;;;;;5202589;28;20215;-48
2023/06/25 07:14:33;;;;;;;7.47;5.10;;;29.90;55.90;;;;;;5227756;28;20697;-46
2023/06/25 07:17:04;;;;;;;6.10;4.80;;;30.50;54.30;;;;;;5201707;28;20214;-46
2023/06/25 07:19:34;;;;;;;4.83;4.00;;;31.20;53.20;;;;;;5222317;28;20206;-47
2023/06/25 07:22:05;;;;;;;4.77;4.37;;;31.90;50.90;;;;;;5210680;28;20192;-46
2023/06/25 07:24:35;;;;;;;4.30;4.00;;;32.40;49.10;;;;;;5210341;28;20178;-46
2023/06/25 07:27:06;;;;;;;4.93;4.30;;;33.00;48.00;;;;;;5199760;28;20190;-46
2023/06/25 07:29:37;;;;;;;7.67;4.27;;;33.40;47.30;;;;;;5217603;28;20199;-46
2023/06/25 07:32:08;;;;;;;8.87;4.60;;;33.60;45.90;;;;;;5223776;28;20194;-46
2023/06/25 07:34:39;;;;;;;5.03;4.60;;;33.80;44.90;;;;;;5207933;28;20232;-46
2023/06/25 07:37:10;;;;;;;5.00;4.60;;;33.60;44.50;;;;;;5226023;28;20194;-48
2023/06/25 07:39:40;;;;;;;5.30;4.90;;;33.80;44.00;;;;;;5209259;28;20210;-46
2023/06/25 07:42:12;;;;;;;3.63;3.42;;;33.90;43.80;;;;;;5201317;28;20182;-48
2023/06/25 07:44:43;;;;;;;5.17;4.77;;;33.80;43.10;;;;;;5221925;28;20187;-47
2023/06/25 07:47:13;;;;;;;4.20;3.93;;;33.70;42.40;;;;;;5227924;28;20261;-45
2023/06/25 07:49:44;;;;;;;4.50;4.13;;;32.60;43.50;;;;;;5209225;28;20206;-46
2023/06/25 07:52:15;;;;;;;4.03;3.73;;;32.00;45.00;;;;;;5228646;28;20194;-46
2023/06/25 07:54:45;;;;;;;5.27;4.80;;;31.60;45.80;;;;;;5193818;28;20360;-46
2023/06/25 07:57:16;;;;;;;10.67;4.60;;;31.10;46.60;;;;;;5222452;28;20186;-46
2023/06/25 07:59:47;;;;;;;6.40;4.30;;;30.50;47.40;;;;;;5219105;28;20211;-46
2023/06/25 08:02:18;;;;;;;6.50;4.63;;;30.00;48.50;;;;;;5204922;28;20659;-46
2023/06/25 08:04:49;;;;;;;7.10;5.00;;;29.40;49.90;;;;;;5224969;28;20466;-47
2023/06/25 08:07:19;;;;;;;7.50;5.50;;;29.00;51.10;;;;;;5211519;28;20193;-46
2023/06/25 08:09:50;;;;;;;4.87;4.47;;;28.50;51.40;;;;;;5227881;28;20229;-46
2023/06/25 08:12:21;;;;;;;9.97;4.00;;;28.30;52.30;;;;;;5229412;28;20213;-47
2023/06/25 08:14:51;;;;;;;5.70;4.50;;;28.40;52.40;;;;;;5214453;28;20527;-48
2023/06/25 08:17:22;;;;;;;4.13;3.83;;;28.50;51.90;;;;;;5215794;28;20178;-47
2023/06/25 08:19:53;;;;;;;5.90;4.30;;;28.60;52.10;;;;;;5215587;28;20257;-46
2023/06/25 08:22:23;;;;;;;5.13;3.70;;;28.90;52.10;;;;;;5235272;28;20416;-47
2023/06/25 08:24:55;;;;;;;4.63;4.27;;;28.90;51.90;;;;;;5234496;28;20182;-47
2023/06/25 08:27:27;;;;;;;5.60;3.50;;;29.00;51.50;;;;;;5215426;28;20189;-47
2023/06/25 08:29:58;;;;;;;5.27;4.87;;;29.00;50.80;;;;;;5203469;28;20460;-47
2023/06/25 08:32:28;;;;;;;4.53;4.13;;;29.10;50.70;;;;;;5213286;28;20447;-47
2023/06/25 08:34:59;;;;;;;5.37;4.10;;;29.30;51.00;;;;;;5227808;28;20592;-47
2023/06/25 08:37:29;;;;;;;5.67;4.80;;;29.40;50.20;;;;;;5226065;28;20175;-49
2023/06/25 08:40:00;;;;;;;5.37;4.90;;;29.50;50.20;;;;;;5231539;28;20260;-47
2023/06/25 08:42:31;;;;;;;4.20;3.90;;;29.40;50.10;;;;;;5228283;28;20197;-47
2023/06/25 08:45:01;;;;;;;6.80;4.33;;;29.50;50.80;;;;;;5231560;28;20650;-47
2023/06/25 08:47:39;;;;;;;4.70;4.40;;;29.60;50.00;;;;;;5231992;28;20285;-47
2023/06/25 08:50:09;;;;;;;4.93;4.50;;;29.70;50.00;;;;;;5192991;28;20674;-49
2023/06/25 08:52:41;;;;;;;5.03;4.50;;;30.00;50.10;;;;;;5228114;28;20499;-47
2023/06/25 08:55:13;;;;;;;11.73;4.70;;;30.20;49.50;;;;;;5205351;28;20546;-46
2023/06/25 08:57:44;;;;;;;4.23;3.97;;;30.30;49.20;;;;;;5230392;28;20175;-48
2023/06/25 09:00:16;;;;;;;6.23;4.40;;;30.60;48.50;;;;;;5230761;28;20463;-48
2023/06/25 09:02:47;;;;;;;4.80;4.40;;;30.50;48.00;;;;;;5210019;28;20182;-47
2023/06/25 09:05:25;;;;;;;5.37;4.83;;;30.60;48.10;;;;;;5192325;28;20183;-48
2023/06/25 09:07:56;;;;;;;4.83;4.50;;;30.20;47.70;;;;;;5213684;28;20209;-47
2023/06/25 09:10:31;;;;;;;6.50;4.50;;;30.30;48.30;;;;;;5231582;28;20324;-46
2023/06/25 09:13:02;;;;;;;4.60;4.30;;;30.30;48.20;;;;;;5205355;28;20209;-47
2023/06/25 09:15:32;;;;;;;6.37;5.30;;;30.50;48.70;;;;;;5213893;28;20630;-47
2023/06/25 09:18:03;;;;;;;5.00;4.43;;;30.60;47.80;;;;;;5233305;28;20554;-46
2023/06/25 09:20:34;;;;;;;4.60;4.07;;;30.50;48.40;;;;;;5214227;28;20236;-48
2023/06/25 09:23:05;;;;;;;18.10;3.73;;;30.30;47.70;;;;;;5232753;28;20190;-47
2023/06/25 09:25:35;;;;;;;5.07;4.63;;;30.50;48.30;;;;;;5214011;28;20550;-50
2023/06/25 09:28:09;;;;;;;6.00;4.87;;;31.00;47.20;;;;;;5230345;28;20194;-47
2023/06/25 09:30:40;;;;;;;4.03;3.80;;;31.00;46.80;;;;;;5231844;28;20206;-48
2023/06/25 09:33:15;;;;;;;4.60;4.27;;;30.80;47.70;;;;;;5213866;28;20209;-47
2023/06/25 09:35:46;;;;;;;5.07;4.40;;;31.20;47.90;;;;;;5218302;28;20554;-47
2023/06/25 09:38:17;;;;;;;4.40;3.87;;;31.40;47.20;;;;;;5227146;28;20183;-46
2023/06/25 09:40:47;;;;;;;14.23;4.90;;;30.90;46.90;;;;;;5201772;28;20217;-48
2023/06/25 09:43:18;;;;;;;5.13;4.20;;;29.80;48.90;;;;;;5231938;28;20198;-47
2023/06/25 09:45:50;;;;;;;4.83;4.47;;;29.60;49.50;;;;;;5232988;28;20237;-46
2023/06/25 09:48:24;;;;;;;6.33;3.93;;;29.70;49.60;;;;;;5222278;28;20198;-48
2023/06/25 09:50:58;;;;;;;4.70;4.30;;;30.20;49.80;;;;;;5198000;28;20895;-46
2023/06/25 09:53:32;;;;;;;4.97;4.57;;;30.50;49.50;;;;;;5223850;28;20454;-46
2023/06/25 09:56:06;;;;;;;7.83;4.20;;;30.70;49.10;;;;;;5230330;28;20440;-47
2023/06/25 09:58:37;;;;;;;5.40;4.07;;;30.90;49.30;;;;;;5197169;28;20425;-47
2023/06/25 10:01:08;;;;;;;14.00;4.83;;;31.00;49.10;;;;;;5212110;28;20301;-46
2023/06/25 10:03:39;;;;;;;4.90;4.40;;;30.80;48.90;;;;;;5195718;28;20185;-46
2023/06/25 10:06:11;;;;;;;3.70;3.40;;;30.00;48.40;;;;;;5229825;28;20433;-47
2023/06/25 10:08:41;;;;;;;3.30;3.07;;;29.80;49.60;;;;;;5222906;28;20202;-46
2023/06/25 10:11:14;;;;;;;6.40;4.53;;;29.80;50.50;;;;;;5224586;28;20445;-46
2023/06/25 10:13:45;;;;;;;9.47;3.67;;;29.90;50.20;;;;;;5229036;28;20182;-48
2023/06/25 10:16:18;;;;;;;8.10;4.50;;;29.80;50.10;;;;;;5225571;28;20908;-47
2023/06/25 10:18:54;;;;;;;4.23;3.87;;;29.40;50.20;;;;;;5228404;28;20220;-47
2023/06/25 10:21:25;;;;;;;4.10;3.80;;;29.10;50.50;;;;;;5224437;28;20439;-46
2023/06/25 10:23:57;;;;;;;4.40;4.10;;;29.00;50.30;;;;;;5206462;28;21016;-46
2023/06/25 10:26:30;;;;;;;3.83;3.53;;;29.00;50.80;;;;;;5227375;28;20182;-47
2023/06/25 10:29:06;;;;;;;3.43;3.20;;;28.90;50.70;;;;;;5227593;28;20439;-46
2023/06/25 10:31:41;;;;;;;4.07;3.57;;;29.00;51.50;;;;;;5211764;28;20464;-46
2023/06/25 10:34:13;;;;;;;4.10;3.67;;;29.00;50.50;;;;;;5194650;28;20470;-47
2023/06/25 10:36:51;;;;;;;4.23;3.50;;;29.00;51.20;;;;;;5228837;28;20428;-46
2023/06/25 10:39:22;;;;;;;10.20;4.30;;;29.00;51.00;;;;;;5253503;22;20919;-43
2023/06/25 10:41:52;;;;;;;4.37;4.00;;;29.00;51.20;;;;;;5259612;28;20467;-43
2023/06/25 10:44:29;;;;;;;5.57;4.83;;;28.40;52.00;;;;;;5265580;28;20188;-43
2023/06/25 10:47:06;;;;;;;4.40;4.00;;;28.00;52.80;;;;;;5268977;28;20517;-42
2023/06/25 10:49:38;;;;;;;7.00;4.33;;;27.70;53.00;;;;;;5260725;28;20450;-43
2023/06/25 10:52:08;;;;;;;3.90;3.53;;;27.50;53.40;;;;;;5230836;28;20464;-44
2023/06/25 10:54:39;;;;;;;4.50;4.10;;;27.50;54.10;;;;;;5244282;28;20470;-43
2023/06/25 10:57:15;;;;;;;5.23;3.90;;;27.40;54.80;;;;;;5227537;28;20206;-44
2023/06/25 10:59:48;;;;;;;7.30;3.70;;;27.90;54.80;;;;;;5226336;28;20236;-43
2023/06/25 11:02:21;;;;;;;3.77;3.50;;;28.50;54.10;;;;;;5241489;28;20460;-42
2023/06/25 11:04:53;;;;;;;12.70;3.63;;;29.20;52.50;;;;;;5230901;28;20460;-44
2023/06/25 11:07:25;;;;;;;4.07;3.80;;;29.40;51.50;;;;;;5228494;28;20431;-43
2023/06/25 11:09:57;;;;;;;3.67;3.50;;;29.30;51.70;;;;;;5231248;28;20542;-43
2023/06/25 11:12:29;;;;;;;4.97;4.50;;;29.30;51.60;;;;;;5246872;28;20455;-44
2023/06/25 11:15:00;;;;;;;7.90;4.10;;;29.30;52.30;;;;;;5251274;28;20428;-43
2023/06/25 11:17:30;;;;;;;4.33;4.03;;;29.40;52.10;;;;;;5228074;28;20436;-43
2023/06/25 11:20:01;;;;;;;10.83;3.97;;;29.30;51.70;;;;;;5241838;28;20193;-44
2023/06/25 11:22:39;;;;;;;4.53;4.23;;;29.50;51.80;;;;;;5229753;28;20192;-43
2023/06/25 11:25:14;;;;;;;3.83;3.50;;;29.40;51.90;;;;;;5229768;28;20528;-44
2023/06/25 11:27:44;;;;;;;5.10;4.60;;;29.40;52.10;;;;;;5234120;28;20458;-44
2023/06/25 11:30:15;;;;;;;7.17;4.70;;;29.30;52.40;;;;;;5229024;28;20460;-43
2023/06/25 11:32:46;;;;;;;4.50;4.20;;;29.20;52.70;;;;;;5231029;28;20209;-50
2023/06/25 11:35:16;;;;;;;4.20;3.80;;;28.90;53.00;;;;;;5241888;28;20190;-44
2023/06/25 11:37:49;;;;;;;2.77;2.67;;;29.00;53.10;;;;;;5248872;28;20185;-44
2023/06/25 11:40:24;;;;;;;5.50;3.70;;;29.10;53.20;;;;;;5229100;28;20211;-43
2023/06/25 11:42:55;;;;;;;3.60;3.30;;;29.00;52.20;;;;;;5248192;28;20440;-44
2023/06/25 11:45:26;;;;;;;4.57;4.13;;;29.10;52.60;;;;;;5229535;28;20842;-43
2023/06/25 11:47:56;;;;;;;6.03;4.50;;;29.10;52.60;;;;;;5225553;28;20272;-42
2023/06/25 11:50:27;;;;;;;5.30;4.90;;;29.00;52.70;;;;;;5250923;28;20511;-44
2023/06/25 11:52:58;;;;;;;5.03;4.50;;;29.10;53.30;;;;;;5252634;28;20232;-44
2023/06/25 11:55:29;;;;;;;5.43;4.90;;;29.00;53.20;;;;;;5238728;28;20595;-42
2023/06/25 11:58:00;;;;;;;4.40;3.77;;;28.90;52.80;;;;;;5234799;28;20182;-43
2023/06/25 12:00:31;;;;;;;5.40;3.63;;;29.20;53.00;;;;;;5238115;28;20536;-44
2023/06/25 12:03:02;;;;;;;5.77;3.73;;;29.50;52.90;;;;;;5239200;28;20188;-42
2023/06/25 12:05:33;;;;;;;5.70;4.10;;;29.70;52.10;;;;;;5230079;28;20178;-44
2023/06/25 12:08:04;;;;;;;4.03;3.73;;;29.70;51.40;;;;;;5233771;28;20519;-44
2023/06/25 12:10:34;;;;;;;3.90;3.67;;;29.40;51.60;;;;;;5244157;28;20650;-44
2023/06/25 12:13:05;;;;;;;4.27;3.73;;;29.20;52.00;;;;;;5244932;28;20304;-44
2023/06/25 12:15:35;;;;;;;6.83;3.50;;;29.00;52.40;;;;;;5249080;28;20178;-43
2023/06/25 12:18:06;;;;;;;4.43;3.97;;;28.90;52.80;;;;;;5234238;28;20249;-42
2023/06/25 12:20:36;;;;;;;4.70;3.63;;;28.70;53.10;;;;;;5232368;28;20198;-43
2023/06/25 12:23:07;;;;;;;8.20;4.70;;;28.60;53.20;;;;;;5236679;28;20261;-43
2023/06/25 12:25:39;;;;;;;5.10;4.60;;;28.60;53.70;;;;;;5244687;28;20188;-42
2023/06/25 12:28:09;;;;;;;8.47;5.30;;;28.50;54.00;;;;;;5244661;28;20602;-42
2023/06/25 12:30:40;;;;;;;4.30;3.90;;;28.50;54.50;;;;;;5254473;28;20483;-43
2023/06/25 12:33:11;;;;;;;4.40;4.00;;;28.40;54.50;;;;;;5252965;28;20212;-43
2023/06/25 12:35:41;;;;;;;4.60;4.20;;;28.20;54.00;;;;;;5245247;28;20321;-43
2023/06/25 12:38:12;;;;;;;3.60;3.30;;;28.00;54.70;;;;;;5251495;28;20174;-44
2023/06/25 12:40:42;;;;;;;5.37;4.30;;;27.80;55.10;;;;;;5253254;28;20210;-43
2023/06/25 12:43:13;;;;;;;3.90;3.73;;;27.80;55.50;;;;;;5244374;28;20201;-43
2023/06/25 12:45:45;;;;;;;9.20;5.10;;;27.80;56.10;;;;;;5238797;28;20194;-44
2023/06/25 12:48:15;;;;;;;6.23;5.73;;;27.80;56.40;;;;;;5233303;28;20178;-44
2023/06/25 12:50:46;;;;;;;4.27;3.87;;;28.00;56.40;;;;;;5229629;28;20867;-44
2023/06/25 12:53:17;;;;;;;10.00;6.60;;;28.00;56.10;;;;;;5253245;28;20205;-43
2023/06/25 12:55:47;;;;;;;5.87;4.63;;;28.10;55.90;;;;;;5233699;28;20189;-43
2023/06/25 12:58:18;;;;;;;3.67;3.37;;;27.90;55.60;;;;;;5242330;28;20186;-43
2023/06/25 13:00:50;;;;;;;3.73;3.43;;;27.90;55.90;;;;;;5231831;28;20202;-43
2023/06/25 13:03:20;;;;;;;4.43;4.07;;;28.20;55.40;;;;;;5241793;28;20240;-43